sensor_id;sensor_type;location;lat;lon;timestamp;P1;durP1;ratioP1;P2;durP2;ratioP2
7177;SDS011;3630;42.146;24.756;2022-11-20T00:01:14;45.47;;;35.13;;
7177;SDS011;3630;42.146;24.756;2022-11-20T00:03:42;49.77;;;36.97;;
7177;SDS011;3630;42.146;24.756;2022-11-20T00:06:11;47.67;;;35.73;;
7177;SDS011;3630;42.146;24.756;2022-11-20T00:08:40;43.47;;;34.00;;
7177;SDS011;3630;42.146;24.756;2022-11-20T00:11:12;52.57;;;36.50;;
7177;SDS011;3630;42.146;24.756;2022-11-20T00:13:41;46.13;;;35.93;;
7177;SDS011;3630;42.146;24.756;2022-11-20T00:16:08;44.27;;;34.43;;
7177;SDS011;3630;42.146;24.756;2022-11-20T00:18:36;50.97;;;35.47;;
7177;SDS011;3630;42.146;24.756;2022-11-20T00:21:03;46.53;;;36.40;;
7177;SDS011;3630;42.146;24.756;2022-11-20T00:23:33;43.70;;;35.67;;
7177;SDS011;3630;42.146;24.756;2022-11-20T00:26:03;44.50;;;35.27;;
7177;SDS011;3630;42.146;24.756;2022-11-20T00:28:31;43.80;;;34.33;;
7177;SDS011;3630;42.146;24.756;2022-11-20T00:31:02;46.57;;;34.07;;
7177;SDS011;3630;42.146;24.756;2022-11-20T00:33:29;47.23;;;35.50;;
7177;SDS011;3630;42.146;24.756;2022-11-20T00:36:00;41.33;;;32.67;;
7177;SDS011;3630;42.146;24.756;2022-11-20T00:38:28;45.80;;;35.33;;
7177;SDS011;3630;42.146;24.756;2022-11-20T00:40:57;45.83;;;36.23;;
7177;SDS011;3630;42.146;24.756;2022-11-20T00:43:25;44.83;;;37.70;;
7177;SDS011;3630;42.146;24.756;2022-11-20T00:45:56;48.37;;;36.07;;
7177;SDS011;3630;42.146;24.756;2022-11-20T00:48:23;45.90;;;35.93;;
7177;SDS011;3630;42.146;24.756;2022-11-20T00:50:49;44.40;;;34.10;;
7177;SDS011;3630;42.146;24.756;2022-11-20T00:53:16;43.00;;;33.47;;
7177;SDS011;3630;42.146;24.756;2022-11-20T00:55:44;44.97;;;34.20;;
7177;SDS011;3630;42.146;24.756;2022-11-20T00:58:20;39.80;;;32.53;;
7177;SDS011;3630;42.146;24.756;2022-11-20T01:00:47;47.60;;;35.50;;
7177;SDS011;3630;42.146;24.756;2022-11-20T01:03:14;41.73;;;33.47;;
7177;SDS011;3630;42.146;24.756;2022-11-20T01:05:41;46.73;;;33.93;;
7177;SDS011;3630;42.146;24.756;2022-11-20T01:08:08;42.03;;;31.30;;
7177;SDS011;3630;42.146;24.756;2022-11-20T01:10:36;41.70;;;32.50;;
7177;SDS011;3630;42.146;24.756;2022-11-20T01:13:02;47.90;;;36.43;;
7177;SDS011;3630;42.146;24.756;2022-11-20T01:15:48;45.80;;;33.53;;
7177;SDS011;3630;42.146;24.756;2022-11-20T01:18:15;44.83;;;34.30;;
7177;SDS011;3630;42.146;24.756;2022-11-20T01:20:42;52.47;;;35.33;;
7177;SDS011;3630;42.146;24.756;2022-11-20T01:23:08;44.33;;;33.57;;
7177;SDS011;3630;42.146;24.756;2022-11-20T01:25:35;46.50;;;33.67;;
7177;SDS011;3630;42.146;24.756;2022-11-20T01:28:02;45.67;;;33.70;;
7177;SDS011;3630;42.146;24.756;2022-11-20T01:30:29;43.27;;;34.77;;
7177;SDS011;3630;42.146;24.756;2022-11-20T01:32:57;43.03;;;33.20;;
7177;SDS011;3630;42.146;24.756;2022-11-20T01:35:24;47.27;;;36.27;;
7177;SDS011;3630;42.146;24.756;2022-11-20T01:37:51;45.13;;;35.00;;
7177;SDS011;3630;42.146;24.756;2022-11-20T01:40:17;38.43;;;32.17;;
7177;SDS011;3630;42.146;24.756;2022-11-20T01:42:46;43.00;;;35.03;;
7177;SDS011;3630;42.146;24.756;2022-11-20T01:45:48;43.67;;;35.73;;
7177;SDS011;3630;42.146;24.756;2022-11-20T01:48:24;45.43;;;34.47;;
7177;SDS011;3630;42.146;24.756;2022-11-20T01:50:55;45.47;;;34.37;;
7177;SDS011;3630;42.146;24.756;2022-11-20T01:53:25;48.97;;;35.10;;
7177;SDS011;3630;42.146;24.756;2022-11-20T01:55:57;45.50;;;34.63;;
7177;SDS011;3630;42.146;24.756;2022-11-20T01:58:27;45.77;;;34.03;;
7177;SDS011;3630;42.146;24.756;2022-11-20T02:00:58;46.03;;;33.67;;
7177;SDS011;3630;42.146;24.756;2022-11-20T02:03:27;45.87;;;34.23;;
7177;SDS011;3630;42.146;24.756;2022-11-20T02:05:55;42.03;;;37.50;;
7177;SDS011;3630;42.146;24.756;2022-11-20T02:08:28;45.10;;;33.63;;
7177;SDS011;3630;42.146;24.756;2022-11-20T02:10:55;46.13;;;34.83;;
7177;SDS011;3630;42.146;24.756;2022-11-20T02:13:22;42.90;;;34.73;;
7177;SDS011;3630;42.146;24.756;2022-11-20T02:16:08;48.88;;;36.75;;
7177;SDS011;3630;42.146;24.756;2022-11-20T02:18:38;49.10;;;33.87;;
7177;SDS011;3630;42.146;24.756;2022-11-20T02:21:07;45.07;;;33.97;;
7177;SDS011;3630;42.146;24.756;2022-11-20T02:23:41;41.67;;;33.23;;
7177;SDS011;3630;42.146;24.756;2022-11-20T02:26:24;46.60;;;33.13;;
7177;SDS011;3630;42.146;24.756;2022-11-20T02:28:53;42.23;;;32.30;;
7177;SDS011;3630;42.146;24.756;2022-11-20T02:31:21;41.40;;;33.20;;
7177;SDS011;3630;42.146;24.756;2022-11-20T02:33:53;40.57;;;30.40;;
7177;SDS011;3630;42.146;24.756;2022-11-20T02:36:21;49.07;;;32.53;;
7177;SDS011;3630;42.146;24.756;2022-11-20T02:38:48;40.27;;;31.20;;
7177;SDS011;3630;42.146;24.756;2022-11-20T02:41:17;39.73;;;30.73;;
7177;SDS011;3630;42.146;24.756;2022-11-20T02:43:44;45.80;;;31.63;;
7177;SDS011;3630;42.146;24.756;2022-11-20T02:46:10;39.90;;;30.13;;
7177;SDS011;3630;42.146;24.756;2022-11-20T02:48:37;34.27;;;30.17;;
7177;SDS011;3630;42.146;24.756;2022-11-20T02:51:04;41.40;;;31.83;;
7177;SDS011;3630;42.146;24.756;2022-11-20T02:53:31;38.97;;;29.67;;
7177;SDS011;3630;42.146;24.756;2022-11-20T02:55:58;35.03;;;27.10;;
7177;SDS011;3630;42.146;24.756;2022-11-20T02:58:26;39.30;;;28.17;;
7177;SDS011;3630;42.146;24.756;2022-11-20T03:00:53;37.23;;;27.97;;
7177;SDS011;3630;42.146;24.756;2022-11-20T03:03:19;29.17;;;22.37;;
7177;SDS011;3630;42.146;24.756;2022-11-20T03:05:46;29.93;;;24.20;;
7177;SDS011;3630;42.146;24.756;2022-11-20T03:08:13;30.57;;;25.63;;
7177;SDS011;3630;42.146;24.756;2022-11-20T03:10:40;34.73;;;26.20;;
7177;SDS011;3630;42.146;24.756;2022-11-20T03:13:07;34.73;;;24.90;;
7177;SDS011;3630;42.146;24.756;2022-11-20T03:15:36;28.73;;;23.43;;
7177;SDS011;3630;42.146;24.756;2022-11-20T03:18:04;34.80;;;27.03;;
7177;SDS011;3630;42.146;24.756;2022-11-20T03:20:32;33.40;;;24.47;;
7177;SDS011;3630;42.146;24.756;2022-11-20T03:22:59;29.83;;;25.13;;
7177;SDS011;3630;42.146;24.756;2022-11-20T03:25:26;34.17;;;27.43;;
7177;SDS011;3630;42.146;24.756;2022-11-20T03:27:53;34.60;;;26.30;;
7177;SDS011;3630;42.146;24.756;2022-11-20T03:30:20;33.40;;;25.83;;
7177;SDS011;3630;42.146;24.756;2022-11-20T03:32:48;36.93;;;25.90;;
7177;SDS011;3630;42.146;24.756;2022-11-20T03:35:15;30.83;;;26.33;;
7177;SDS011;3630;42.146;24.756;2022-11-20T03:37:42;32.10;;;25.03;;
7177;SDS011;3630;42.146;24.756;2022-11-20T03:40:11;36.17;;;28.40;;
7177;SDS011;3630;42.146;24.756;2022-11-20T03:42:38;31.57;;;24.87;;
7177;SDS011;3630;42.146;24.756;2022-11-20T03:45:11;33.47;;;24.10;;
7177;SDS011;3630;42.146;24.756;2022-11-20T03:47:38;33.10;;;26.30;;
7177;SDS011;3630;42.146;24.756;2022-11-20T03:50:07;25.87;;;20.67;;
7177;SDS011;3630;42.146;24.756;2022-11-20T03:52:34;29.67;;;21.50;;
7177;SDS011;3630;42.146;24.756;2022-11-20T03:55:01;32.60;;;22.33;;
7177;SDS011;3630;42.146;24.756;2022-11-20T03:57:28;23.73;;;19.47;;
7177;SDS011;3630;42.146;24.756;2022-11-20T03:59:55;20.37;;;17.50;;
7177;SDS011;3630;42.146;24.756;2022-11-20T04:02:22;18.73;;;15.63;;
7177;SDS011;3630;42.146;24.756;2022-11-20T04:04:48;24.00;;;15.73;;
7177;SDS011;3630;42.146;24.756;2022-11-20T04:07:17;26.83;;;18.87;;
7177;SDS011;3630;42.146;24.756;2022-11-20T04:09:43;24.40;;;17.27;;
7177;SDS011;3630;42.146;24.756;2022-11-20T04:12:10;19.77;;;14.87;;
7177;SDS011;3630;42.146;24.756;2022-11-20T04:14:37;19.03;;;15.07;;
7177;SDS011;3630;42.146;24.756;2022-11-20T04:17:04;21.67;;;15.90;;
7177;SDS011;3630;42.146;24.756;2022-11-20T04:19:31;18.30;;;14.60;;
7177;SDS011;3630;42.146;24.756;2022-11-20T04:21:57;16.93;;;13.57;;
7177;SDS011;3630;42.146;24.756;2022-11-20T04:24:26;17.60;;;14.27;;
7177;SDS011;3630;42.146;24.756;2022-11-20T04:26:53;21.97;;;15.10;;
7177;SDS011;3630;42.146;24.756;2022-11-20T04:29:19;26.63;;;15.63;;
7177;SDS011;3630;42.146;24.756;2022-11-20T04:31:46;23.37;;;15.03;;
7177;SDS011;3630;42.146;24.756;2022-11-20T04:34:13;18.50;;;13.83;;
7177;SDS011;3630;42.146;24.756;2022-11-20T04:36:40;17.07;;;11.87;;
7177;SDS011;3630;42.146;24.756;2022-11-20T04:39:11;23.90;;;10.97;;
7177;SDS011;3630;42.146;24.756;2022-11-20T04:41:41;17.23;;;10.87;;
7177;SDS011;3630;42.146;24.756;2022-11-20T04:44:08;14.93;;;9.83;;
7177;SDS011;3630;42.146;24.756;2022-11-20T04:46:35;20.57;;;11.30;;
7177;SDS011;3630;42.146;24.756;2022-11-20T04:49:04;14.20;;;9.30;;
7177;SDS011;3630;42.146;24.756;2022-11-20T04:51:31;16.23;;;9.40;;
7177;SDS011;3630;42.146;24.756;2022-11-20T04:53:58;18.00;;;9.30;;
7177;SDS011;3630;42.146;24.756;2022-11-20T04:56:25;18.03;;;10.03;;
7177;SDS011;3630;42.146;24.756;2022-11-20T04:58:53;13.90;;;9.50;;
7177;SDS011;3630;42.146;24.756;2022-11-20T05:01:20;18.53;;;10.37;;
7177;SDS011;3630;42.146;24.756;2022-11-20T05:03:48;13.43;;;8.80;;
7177;SDS011;3630;42.146;24.756;2022-11-20T05:06:16;17.57;;;8.33;;
7177;SDS011;3630;42.146;24.756;2022-11-20T05:08:45;17.03;;;8.20;;
7177;SDS011;3630;42.146;24.756;2022-11-20T05:11:12;21.43;;;8.43;;
7177;SDS011;3630;42.146;24.756;2022-11-20T05:13:41;13.47;;;7.93;;
7177;SDS011;3630;42.146;24.756;2022-11-20T05:16:10;16.87;;;8.17;;
7177;SDS011;3630;42.146;24.756;2022-11-20T05:18:38;14.60;;;8.90;;
7177;SDS011;3630;42.146;24.756;2022-11-20T05:21:05;16.43;;;8.17;;
7177;SDS011;3630;42.146;24.756;2022-11-20T05:23:33;15.70;;;8.37;;
7177;SDS011;3630;42.146;24.756;2022-11-20T05:26:00;15.83;;;8.30;;
7177;SDS011;3630;42.146;24.756;2022-11-20T05:28:28;12.80;;;8.03;;
7177;SDS011;3630;42.146;24.756;2022-11-20T05:31:03;14.57;;;8.03;;
7177;SDS011;3630;42.146;24.756;2022-11-20T05:33:32;18.53;;;9.47;;
7177;SDS011;3630;42.146;24.756;2022-11-20T05:35:59;13.90;;;8.53;;
7177;SDS011;3630;42.146;24.756;2022-11-20T05:38:26;14.00;;;10.00;;
7177;SDS011;3630;42.146;24.756;2022-11-20T05:40:53;18.70;;;7.93;;
7177;SDS011;3630;42.146;24.756;2022-11-20T05:43:19;12.03;;;7.80;;
7177;SDS011;3630;42.146;24.756;2022-11-20T05:45:51;14.53;;;8.30;;
7177;SDS011;3630;42.146;24.756;2022-11-20T05:48:19;16.80;;;8.27;;
7177;SDS011;3630;42.146;24.756;2022-11-20T05:50:47;17.50;;;9.30;;
7177;SDS011;3630;42.146;24.756;2022-11-20T05:53:14;17.37;;;8.97;;
7177;SDS011;3630;42.146;24.756;2022-11-20T05:55:40;12.07;;;8.70;;
7177;SDS011;3630;42.146;24.756;2022-11-20T05:58:07;14.80;;;9.10;;
7177;SDS011;3630;42.146;24.756;2022-11-20T06:00:34;15.83;;;8.43;;
7177;SDS011;3630;42.146;24.756;2022-11-20T06:03:01;13.90;;;9.17;;
7177;SDS011;3630;42.146;24.756;2022-11-20T06:05:28;17.87;;;9.70;;
7177;SDS011;3630;42.146;24.756;2022-11-20T06:07:56;15.60;;;9.57;;
7177;SDS011;3630;42.146;24.756;2022-11-20T06:10:23;16.43;;;10.60;;
7177;SDS011;3630;42.146;24.756;2022-11-20T06:12:50;19.17;;;11.23;;
7177;SDS011;3630;42.146;24.756;2022-11-20T06:15:16;15.57;;;10.90;;
7177;SDS011;3630;42.146;24.756;2022-11-20T06:17:43;12.73;;;11.27;;
7177;SDS011;3630;42.146;24.756;2022-11-20T06:20:10;19.70;;;10.93;;
7177;SDS011;3630;42.146;24.756;2022-11-20T06:22:37;16.43;;;9.83;;
7177;SDS011;3630;42.146;24.756;2022-11-20T06:25:06;12.13;;;9.30;;
7177;SDS011;3630;42.146;24.756;2022-11-20T06:27:33;16.30;;;9.60;;
7177;SDS011;3630;42.146;24.756;2022-11-20T06:30:00;17.10;;;10.30;;
7177;SDS011;3630;42.146;24.756;2022-11-20T06:32:26;16.20;;;11.30;;
7177;SDS011;3630;42.146;24.756;2022-11-20T06:34:53;16.73;;;10.93;;
7177;SDS011;3630;42.146;24.756;2022-11-20T06:37:20;12.73;;;8.97;;
7177;SDS011;3630;42.146;24.756;2022-11-20T06:39:47;18.40;;;11.20;;
7177;SDS011;3630;42.146;24.756;2022-11-20T06:42:15;18.67;;;10.27;;
7177;SDS011;3630;42.146;24.756;2022-11-20T06:44:42;14.70;;;9.43;;
7177;SDS011;3630;42.146;24.756;2022-11-20T06:47:09;16.15;;;10.57;;
7177;SDS011;3630;42.146;24.756;2022-11-20T06:49:36;18.30;;;9.70;;
7177;SDS011;3630;42.146;24.756;2022-11-20T06:52:03;24.90;;;12.33;;
7177;SDS011;3630;42.146;24.756;2022-11-20T06:54:30;15.87;;;11.00;;
7177;SDS011;3630;42.146;24.756;2022-11-20T06:56:57;20.33;;;12.03;;
7177;SDS011;3630;42.146;24.756;2022-11-20T06:59:25;18.50;;;10.63;;
7177;SDS011;3630;42.146;24.756;2022-11-20T07:01:52;16.83;;;10.23;;
7177;SDS011;3630;42.146;24.756;2022-11-20T07:04:19;14.07;;;10.37;;
7177;SDS011;3630;42.146;24.756;2022-11-20T07:06:46;14.13;;;9.93;;
7177;SDS011;3630;42.146;24.756;2022-11-20T07:09:13;14.20;;;9.90;;
7177;SDS011;3630;42.146;24.756;2022-11-20T07:11:40;14.03;;;9.47;;
7177;SDS011;3630;42.146;24.756;2022-11-20T07:14:06;14.70;;;9.20;;
7177;SDS011;3630;42.146;24.756;2022-11-20T07:16:34;15.07;;;9.83;;
7177;SDS011;3630;42.146;24.756;2022-11-20T07:19:01;14.03;;;9.13;;
7177;SDS011;3630;42.146;24.756;2022-11-20T07:21:28;17.03;;;10.00;;
7177;SDS011;3630;42.146;24.756;2022-11-20T07:23:55;16.20;;;9.93;;
7177;SDS011;3630;42.146;24.756;2022-11-20T07:26:22;15.73;;;9.50;;
7177;SDS011;3630;42.146;24.756;2022-11-20T07:28:49;16.00;;;11.83;;
7177;SDS011;3630;42.146;24.756;2022-11-20T07:31:15;11.93;;;9.07;;
7177;SDS011;3630;42.146;24.756;2022-11-20T07:33:44;17.42;;;10.57;;
7177;SDS011;3630;42.146;24.756;2022-11-20T07:36:10;19.70;;;11.07;;
7177;SDS011;3630;42.146;24.756;2022-11-20T07:38:37;14.83;;;9.23;;
7177;SDS011;3630;42.146;24.756;2022-11-20T07:41:04;16.43;;;9.33;;
7177;SDS011;3630;42.146;24.756;2022-11-20T07:43:31;13.73;;;10.07;;
7177;SDS011;3630;42.146;24.756;2022-11-20T07:45:58;15.27;;;10.20;;
7177;SDS011;3630;42.146;24.756;2022-11-20T07:48:25;18.50;;;11.17;;
7177;SDS011;3630;42.146;24.756;2022-11-20T07:50:54;19.37;;;11.07;;
7177;SDS011;3630;42.146;24.756;2022-11-20T07:53:21;17.63;;;11.90;;
7177;SDS011;3630;42.146;24.756;2022-11-20T07:55:48;18.77;;;12.03;;
7177;SDS011;3630;42.146;24.756;2022-11-20T07:58:17;21.03;;;12.10;;
7177;SDS011;3630;42.146;24.756;2022-11-20T08:00:44;16.13;;;11.93;;
7177;SDS011;3630;42.146;24.756;2022-11-20T08:03:11;18.33;;;12.13;;
7177;SDS011;3630;42.146;24.756;2022-11-20T08:05:37;19.73;;;13.37;;
7177;SDS011;3630;42.146;24.756;2022-11-20T08:08:06;23.90;;;14.33;;
7177;SDS011;3630;42.146;24.756;2022-11-20T08:10:33;23.50;;;14.27;;
7177;SDS011;3630;42.146;24.756;2022-11-20T08:12:59;18.70;;;13.30;;
7177;SDS011;3630;42.146;24.756;2022-11-20T08:15:47;18.40;;;13.47;;
7177;SDS011;3630;42.146;24.756;2022-11-20T08:18:16;20.65;;;14.10;;
7177;SDS011;3630;42.146;24.756;2022-11-20T08:20:43;21.23;;;13.93;;
7177;SDS011;3630;42.146;24.756;2022-11-20T08:23:12;23.77;;;14.03;;
7177;SDS011;3630;42.146;24.756;2022-11-20T08:25:39;29.67;;;14.80;;
7177;SDS011;3630;42.146;24.756;2022-11-20T08:28:06;23.97;;;17.47;;
7177;SDS011;3630;42.146;24.756;2022-11-20T08:30:34;22.13;;;14.87;;
7177;SDS011;3630;42.146;24.756;2022-11-20T08:33:03;23.97;;;18.80;;
7177;SDS011;3630;42.146;24.756;2022-11-20T08:35:32;24.73;;;18.33;;
7177;SDS011;3630;42.146;24.756;2022-11-20T08:38:00;23.43;;;16.77;;
7177;SDS011;3630;42.146;24.756;2022-11-20T08:40:29;22.43;;;15.73;;
7177;SDS011;3630;42.146;24.756;2022-11-20T08:42:55;20.00;;;12.27;;
7177;SDS011;3630;42.146;24.756;2022-11-20T08:45:22;24.73;;;13.93;;
7177;SDS011;3630;42.146;24.756;2022-11-20T08:47:49;17.70;;;11.33;;
7177;SDS011;3630;42.146;24.756;2022-11-20T08:50:16;16.23;;;11.10;;
7177;SDS011;3630;42.146;24.756;2022-11-20T08:52:44;17.93;;;11.27;;
7177;SDS011;3630;42.146;24.756;2022-11-20T08:55:10;23.67;;;13.57;;
7177;SDS011;3630;42.146;24.756;2022-11-20T08:57:39;21.10;;;13.03;;
7177;SDS011;3630;42.146;24.756;2022-11-20T09:00:07;21.13;;;15.47;;
7177;SDS011;3630;42.146;24.756;2022-11-20T09:02:35;28.50;;;19.57;;
7177;SDS011;3630;42.146;24.756;2022-11-20T09:05:02;29.57;;;19.77;;
7177;SDS011;3630;42.146;24.756;2022-11-20T09:07:30;33.80;;;28.00;;
7177;SDS011;3630;42.146;24.756;2022-11-20T09:09:56;31.93;;;26.87;;
7177;SDS011;3630;42.146;24.756;2022-11-20T09:12:23;30.43;;;24.80;;
7177;SDS011;3630;42.146;24.756;2022-11-20T09:14:52;23.90;;;18.57;;
7177;SDS011;3630;42.146;24.756;2022-11-20T09:17:18;18.33;;;13.77;;
7177;SDS011;3630;42.146;24.756;2022-11-20T09:19:45;25.37;;;14.97;;
7177;SDS011;3630;42.146;24.756;2022-11-20T09:22:13;21.53;;;14.27;;
7177;SDS011;3630;42.146;24.756;2022-11-20T09:24:39;14.87;;;10.00;;
7177;SDS011;3630;42.146;24.756;2022-11-20T09:27:07;15.07;;;8.23;;
7177;SDS011;3630;42.146;24.756;2022-11-20T09:29:34;12.17;;;6.70;;
7177;SDS011;3630;42.146;24.756;2022-11-20T09:32:02;12.80;;;7.17;;
7177;SDS011;3630;42.146;24.756;2022-11-20T09:34:29;16.20;;;8.07;;
7177;SDS011;3630;42.146;24.756;2022-11-20T09:36:56;7.83;;;6.30;;
7177;SDS011;3630;42.146;24.756;2022-11-20T09:39:23;13.77;;;7.47;;
7177;SDS011;3630;42.146;24.756;2022-11-20T09:44:53;17.47;;;12.60;;
7177;SDS011;3630;42.146;24.756;2022-11-20T09:47:32;14.80;;;10.60;;
7177;SDS011;3630;42.146;24.756;2022-11-20T09:50:17;15.80;;;9.97;;
7177;SDS011;3630;42.146;24.756;2022-11-20T09:52:55;11.20;;;8.60;;
7177;SDS011;3630;42.146;24.756;2022-11-20T09:55:33;13.13;;;10.03;;
7177;SDS011;3630;42.146;24.756;2022-11-20T09:58:02;15.03;;;10.60;;
7177;SDS011;3630;42.146;24.756;2022-11-20T10:00:32;9.53;;;7.23;;
7177;SDS011;3630;42.146;24.756;2022-11-20T10:03:04;14.70;;;7.37;;
7177;SDS011;3630;42.146;24.756;2022-11-20T10:05:40;14.93;;;7.50;;
7177;SDS011;3630;42.146;24.756;2022-11-20T10:08:12;13.80;;;6.90;;
7177;SDS011;3630;42.146;24.756;2022-11-20T10:10:46;12.13;;;6.80;;
7177;SDS011;3630;42.146;24.756;2022-11-20T10:13:27;9.10;;;6.80;;
7177;SDS011;3630;42.146;24.756;2022-11-20T10:16:10;10.83;;;7.27;;
7177;SDS011;3630;42.146;24.756;2022-11-20T10:18:51;12.67;;;7.67;;
7177;SDS011;3630;42.146;24.756;2022-11-20T10:21:34;11.97;;;7.87;;
7177;SDS011;3630;42.146;24.756;2022-11-20T10:27:19;16.97;;;8.60;;
7177;SDS011;3630;42.146;24.756;2022-11-20T10:29:59;14.43;;;7.67;;
7177;SDS011;3630;42.146;24.756;2022-11-20T10:32:31;14.53;;;8.77;;
7177;SDS011;3630;42.146;24.756;2022-11-20T10:35:06;16.00;;;7.90;;
7177;SDS011;3630;42.146;24.756;2022-11-20T10:37:45;12.43;;;8.47;;
7177;SDS011;3630;42.146;24.756;2022-11-20T10:40:18;11.97;;;8.13;;
7177;SDS011;3630;42.146;24.756;2022-11-20T10:42:50;18.37;;;8.67;;
7177;SDS011;3630;42.146;24.756;2022-11-20T10:45:35;14.80;;;8.80;;
7177;SDS011;3630;42.146;24.756;2022-11-20T10:48:14;20.33;;;10.03;;
7177;SDS011;3630;42.146;24.756;2022-11-20T10:53:40;16.42;;;9.13;;
7177;SDS011;3630;42.146;24.756;2022-11-20T10:56:17;18.40;;;9.13;;
7177;SDS011;3630;42.146;24.756;2022-11-20T10:58:49;15.77;;;9.55;;
7177;SDS011;3630;42.146;24.756;2022-11-20T11:01:26;16.00;;;10.37;;
7177;SDS011;3630;42.146;24.756;2022-11-20T11:03:53;15.10;;;8.73;;
7177;SDS011;3630;42.146;24.756;2022-11-20T11:06:23;16.27;;;8.57;;
7177;SDS011;3630;42.146;24.756;2022-11-20T11:08:56;18.57;;;9.30;;
7177;SDS011;3630;42.146;24.756;2022-11-20T11:11:27;13.52;;;9.18;;
7177;SDS011;3630;42.146;24.756;2022-11-20T11:14:04;14.00;;;9.27;;
7177;SDS011;3630;42.146;24.756;2022-11-20T11:16:31;19.10;;;11.03;;
7177;SDS011;3630;42.146;24.756;2022-11-20T11:19:04;16.87;;;9.90;;
7177;SDS011;3630;42.146;24.756;2022-11-20T11:21:33;15.83;;;8.43;;
7177;SDS011;3630;42.146;24.756;2022-11-20T11:24:02;14.40;;;8.93;;
7177;SDS011;3630;42.146;24.756;2022-11-20T11:26:30;16.10;;;8.80;;
7177;SDS011;3630;42.146;24.756;2022-11-20T11:28:57;19.33;;;13.83;;
7177;SDS011;3630;42.146;24.756;2022-11-20T11:31:25;20.83;;;11.03;;
7177;SDS011;3630;42.146;24.756;2022-11-20T11:34:03;21.20;;;12.20;;
7177;SDS011;3630;42.146;24.756;2022-11-20T11:36:30;21.57;;;10.00;;
7177;SDS011;3630;42.146;24.756;2022-11-20T11:39:02;16.83;;;10.50;;
7177;SDS011;3630;42.146;24.756;2022-11-20T11:41:32;12.93;;;7.70;;
7177;SDS011;3630;42.146;24.756;2022-11-20T11:44:02;13.30;;;8.50;;
7177;SDS011;3630;42.146;24.756;2022-11-20T11:47:00;26.00;;;10.63;;
7177;SDS011;3630;42.146;24.756;2022-11-20T11:49:28;19.13;;;11.33;;
7177;SDS011;3630;42.146;24.756;2022-11-20T11:52:04;16.43;;;6.80;;
7177;SDS011;3630;42.146;24.756;2022-11-20T11:54:41;13.03;;;7.23;;
7177;SDS011;3630;42.146;24.756;2022-11-20T11:57:14;10.63;;;6.07;;
7177;SDS011;3630;42.146;24.756;2022-11-20T11:59:51;14.77;;;6.53;;
7177;SDS011;3630;42.146;24.756;2022-11-20T12:02:29;11.07;;;6.57;;
7177;SDS011;3630;42.146;24.756;2022-11-20T12:05:03;14.57;;;5.80;;
7177;SDS011;3630;42.146;24.756;2022-11-20T12:07:41;19.27;;;9.37;;
7177;SDS011;3630;42.146;24.756;2022-11-20T12:10:14;17.03;;;7.93;;
7177;SDS011;3630;42.146;24.756;2022-11-20T12:12:47;13.47;;;7.03;;
7177;SDS011;3630;42.146;24.756;2022-11-20T12:15:29;14.27;;;7.33;;
7177;SDS011;3630;42.146;24.756;2022-11-20T12:17:57;14.33;;;7.93;;
7177;SDS011;3630;42.146;24.756;2022-11-20T12:20:25;15.33;;;7.43;;
7177;SDS011;3630;42.146;24.756;2022-11-20T12:22:59;16.83;;;8.50;;
7177;SDS011;3630;42.146;24.756;2022-11-20T12:25:30;18.23;;;9.03;;
7177;SDS011;3630;42.146;24.756;2022-11-20T12:28:07;14.33;;;8.50;;
7177;SDS011;3630;42.146;24.756;2022-11-20T12:30:56;16.47;;;7.57;;
7177;SDS011;3630;42.146;24.756;2022-11-20T12:33:47;18.43;;;8.83;;
7177;SDS011;3630;42.146;24.756;2022-11-20T12:36:27;16.53;;;8.80;;
7177;SDS011;3630;42.146;24.756;2022-11-20T12:39:05;13.77;;;5.97;;
7177;SDS011;3630;42.146;24.756;2022-11-20T12:41:43;14.80;;;5.80;;
7177;SDS011;3630;42.146;24.756;2022-11-20T12:44:41;15.50;;;7.57;;
7177;SDS011;3630;42.146;24.756;2022-11-20T12:47:50;18.90;;;10.33;;
7177;SDS011;3630;42.146;24.756;2022-11-20T12:50:32;13.80;;;7.77;;
7177;SDS011;3630;42.146;24.756;2022-11-20T12:53:10;13.33;;;6.67;;
7177;SDS011;3630;42.146;24.756;2022-11-20T12:55:52;16.13;;;6.50;;
7177;SDS011;3630;42.146;24.756;2022-11-20T12:58:25;18.43;;;9.10;;
7177;SDS011;3630;42.146;24.756;2022-11-20T13:01:00;20.43;;;9.40;;
7177;SDS011;3630;42.146;24.756;2022-11-20T13:03:55;13.97;;;5.33;;
7177;SDS011;3630;42.146;24.756;2022-11-20T13:06:27;14.30;;;5.90;;
7177;SDS011;3630;42.146;24.756;2022-11-20T13:08:55;16.67;;;8.13;;
7177;SDS011;3630;42.146;24.756;2022-11-20T13:11:25;19.30;;;9.97;;
7177;SDS011;3630;42.146;24.756;2022-11-20T13:14:04;28.50;;;11.50;;
7177;SDS011;3630;42.146;24.756;2022-11-20T13:16:39;26.50;;;10.97;;
7177;SDS011;3630;42.146;24.756;2022-11-20T13:19:13;23.67;;;11.77;;
7177;SDS011;3630;42.146;24.756;2022-11-20T13:21:43;24.43;;;10.10;;
7177;SDS011;3630;42.146;24.756;2022-11-20T13:24:20;28.87;;;12.23;;
7177;SDS011;3630;42.146;24.756;2022-11-20T13:27:00;24.30;;;11.67;;
7177;SDS011;3630;42.146;24.756;2022-11-20T13:29:32;29.47;;;12.77;;
7177;SDS011;3630;42.146;24.756;2022-11-20T13:32:03;17.37;;;9.67;;
7177;SDS011;3630;42.146;24.756;2022-11-20T13:34:32;22.63;;;8.70;;
7177;SDS011;3630;42.146;24.756;2022-11-20T13:37:00;22.27;;;9.57;;
7177;SDS011;3630;42.146;24.756;2022-11-20T13:39:29;17.53;;;7.93;;
7177;SDS011;3630;42.146;24.756;2022-11-20T13:41:58;19.03;;;7.73;;
7177;SDS011;3630;42.146;24.756;2022-11-20T13:44:29;24.90;;;7.67;;
7177;SDS011;3630;42.146;24.756;2022-11-20T13:47:04;17.50;;;5.43;;
7177;SDS011;3630;42.146;24.756;2022-11-20T13:49:46;16.93;;;5.03;;
7177;SDS011;3630;42.146;24.756;2022-11-20T13:55:14;10.97;;;3.33;;
7177;SDS011;3630;42.146;24.756;2022-11-20T13:57:58;12.03;;;3.10;;
7177;SDS011;3630;42.146;24.756;2022-11-20T14:00:43;16.70;;;3.67;;
7177;SDS011;3630;42.146;24.756;2022-11-20T14:03:13;15.13;;;4.18;;
7177;SDS011;3630;42.146;24.756;2022-11-20T14:05:46;9.30;;;2.80;;
7177;SDS011;3630;42.146;24.756;2022-11-20T14:08:20;9.97;;;2.93;;
7177;SDS011;3630;42.146;24.756;2022-11-20T14:11:01;6.33;;;1.63;;
7177;SDS011;3630;42.146;24.756;2022-11-20T14:13:30;5.13;;;1.80;;
7177;SDS011;3630;42.146;24.756;2022-11-20T14:15:57;4.53;;;1.83;;
7177;SDS011;3630;42.146;24.756;2022-11-20T14:18:25;4.50;;;1.43;;
7177;SDS011;3630;42.146;24.756;2022-11-20T14:20:53;3.23;;;1.27;;
7177;SDS011;3630;42.146;24.756;2022-11-20T14:23:23;4.20;;;1.80;;
7177;SDS011;3630;42.146;24.756;2022-11-20T14:25:52;8.50;;;2.30;;
7177;SDS011;3630;42.146;24.756;2022-11-20T14:28:21;5.93;;;1.90;;
7177;SDS011;3630;42.146;24.756;2022-11-20T14:30:55;2.53;;;1.40;;
7177;SDS011;3630;42.146;24.756;2022-11-20T14:33:23;3.47;;;1.50;;
7177;SDS011;3630;42.146;24.756;2022-11-20T14:35:53;3.10;;;1.43;;
7177;SDS011;3630;42.146;24.756;2022-11-20T14:38:22;2.10;;;1.40;;
7177;SDS011;3630;42.146;24.756;2022-11-20T14:40:51;3.70;;;1.40;;
7177;SDS011;3630;42.146;24.756;2022-11-20T14:43:20;4.47;;;1.90;;
7177;SDS011;3630;42.146;24.756;2022-11-20T14:45:52;5.53;;;2.35;;
7177;SDS011;3630;42.146;24.756;2022-11-20T14:48:27;2.90;;;1.53;;
7177;SDS011;3630;42.146;24.756;2022-11-20T14:50:58;2.53;;;1.50;;
7177;SDS011;3630;42.146;24.756;2022-11-20T14:53:25;3.03;;;1.50;;
7177;SDS011;3630;42.146;24.756;2022-11-20T14:55:56;4.50;;;2.30;;
7177;SDS011;3630;42.146;24.756;2022-11-20T14:58:24;1.43;;;1.20;;
7177;SDS011;3630;42.146;24.756;2022-11-20T15:00:53;3.93;;;2.87;;
7177;SDS011;3630;42.146;24.756;2022-11-20T15:03:30;3.97;;;3.03;;
7177;SDS011;3630;42.146;24.756;2022-11-20T15:05:58;5.60;;;2.80;;
7177;SDS011;3630;42.146;24.756;2022-11-20T15:08:24;6.30;;;2.17;;
7177;SDS011;3630;42.146;24.756;2022-11-20T15:10:51;7.20;;;2.67;;